sensor_id;sensor_type;location;lat;lon;timestamp;pressure;altitude;pressure_sealevel;temperature
41593;BMP180;28026;48.562;14.440;2023-02-01T00:00:43;93815.00;;;7.70
41593;BMP180;28026;48.562;14.440;2023-02-01T00:03:13;93824.00;;;7.70
41593;BMP180;28026;48.562;14.440;2023-02-01T00:05:55;93809.00;;;7.70
41593;BMP180;28026;48.562;14.440;2023-02-01T00:08:28;93817.00;;;7.80
41593;BMP180;28026;48.562;14.440;2023-02-01T00:11:01;93811.00;;;7.80
41593;BMP180;28026;48.562;14.440;2023-02-01T00:13:38;93820.00;;;7.80
41593;BMP180;28026;48.562;14.440;2023-02-01T00:16:17;93811.00;;;7.80
41593;BMP180;28026;48.562;14.440;2023-02-01T00:19:00;93811.00;;;7.80
41593;BMP180;28026;48.562;14.440;2023-02-01T00:21:33;93812.00;;;7.80
41593;BMP180;28026;48.562;14.440;2023-02-01T00:24:05;93807.00;;;7.80
41593;BMP180;28026;48.562;14.440;2023-02-01T00:26:40;93811.00;;;7.80
41593;BMP180;28026;48.562;14.440;2023-02-01T00:29:16;93799.00;;;7.80
41593;BMP180;28026;48.562;14.440;2023-02-01T00:31:52;93801.00;;;7.80
41593;BMP180;28026;48.562;14.440;2023-02-01T00:34:23;93797.00;;;7.80
41593;BMP180;28026;48.562;14.440;2023-02-01T00:36:54;93793.00;;;7.80
41593;BMP180;28026;48.562;14.440;2023-02-01T00:39:25;93803.00;;;7.80
41593;BMP180;28026;48.562;14.440;2023-02-01T00:41:56;93797.00;;;7.80
41593;BMP180;28026;48.562;14.440;2023-02-01T00:44:27;93802.00;;;7.80
41593;BMP180;28026;48.562;14.440;2023-02-01T00:46:58;93796.00;;;7.90
41593;BMP180;28026;48.562;14.440;2023-02-01T00:49:30;93785.00;;;7.90
41593;BMP180;28026;48.562;14.440;2023-02-01T00:52:01;93795.00;;;7.90
41593;BMP180;28026;48.562;14.440;2023-02-01T00:54:33;93786.00;;;7.90
41593;BMP180;28026;48.562;14.440;2023-02-01T00:57:03;93800.00;;;7.90
41593;BMP180;28026;48.562;14.440;2023-02-01T00:59:34;93781.00;;;7.90
41593;BMP180;28026;48.562;14.440;2023-02-01T01:02:05;93776.00;;;7.90
41593;BMP180;28026;48.562;14.440;2023-02-01T01:04:36;93778.00;;;7.90
41593;BMP180;28026;48.562;14.440;2023-02-01T01:07:08;93760.00;;;7.90
41593;BMP180;28026;48.562;14.440;2023-02-01T01:09:38;93772.00;;;7.90
41593;BMP180;28026;48.562;14.440;2023-02-01T01:12:09;93783.00;;;7.90
41593;BMP180;28026;48.562;14.440;2023-02-01T01:14:40;93760.00;;;8.00
41593;BMP180;28026;48.562;14.440;2023-02-01T01:17:11;93764.00;;;7.90
41593;BMP180;28026;48.562;14.440;2023-02-01T01:19:42;93774.00;;;7.90
41593;BMP180;28026;48.562;14.440;2023-02-01T01:22:13;93778.00;;;7.90
41593;BMP180;28026;48.562;14.440;2023-02-01T01:24:44;93757.00;;;8.00
41593;BMP180;28026;48.562;14.440;2023-02-01T01:27:15;93767.00;;;8.00
41593;BMP180;28026;48.562;14.440;2023-02-01T01:29:46;93773.00;;;8.00
41593;BMP180;28026;48.562;14.440;2023-02-01T01:32:16;93772.00;;;8.00
41593;BMP180;28026;48.562;14.440;2023-02-01T01:34:47;93777.00;;;8.00
41593;BMP180;28026;48.562;14.440;2023-02-01T01:37:18;93783.00;;;8.00
41593;BMP180;28026;48.562;14.440;2023-02-01T01:39:49;93778.00;;;8.10
41593;BMP180;28026;48.562;14.440;2023-02-01T01:42:20;93781.00;;;8.10
41593;BMP180;28026;48.562;14.440;2023-02-01T01:45:21;93792.00;;;8.00
41593;BMP180;28026;48.562;14.440;2023-02-01T01:47:56;93792.00;;;8.00
41593;BMP180;28026;48.562;14.440;2023-02-01T01:50:40;93787.00;;;8.00
41593;BMP180;28026;48.562;14.440;2023-02-01T01:53:19;93783.00;;;8.00
41593;BMP180;28026;48.562;14.440;2023-02-01T01:55:56;93759.00;;;8.00
41593;BMP180;28026;48.562;14.440;2023-02-01T01:58:31;93762.00;;;8.10
41593;BMP180;28026;48.562;14.440;2023-02-01T02:01:04;93769.00;;;8.00
41593;BMP180;28026;48.562;14.440;2023-02-01T02:03:39;93764.00;;;8.00
41593;BMP180;28026;48.562;14.440;2023-02-01T02:09:30;93768.00;;;8.00
41593;BMP180;28026;48.562;14.440;2023-02-01T02:12:01;93769.00;;;8.00
41593;BMP180;28026;48.562;14.440;2023-02-01T02:14:33;93763.00;;;8.10
41593;BMP180;28026;48.562;14.440;2023-02-01T02:18:29;93757.00;;;8.10
41593;BMP180;28026;48.562;14.440;2023-02-01T02:21:52;93773.00;;;8.10
41593;BMP180;28026;48.562;14.440;2023-02-01T02:34:40;93755.00;;;8.20
41593;BMP180;28026;48.562;14.440;2023-02-01T02:37:48;93760.00;;;8.20
41593;BMP180;28026;48.562;14.440;2023-02-01T02:44:23;93752.00;;;8.10
41593;BMP180;28026;48.562;14.440;2023-02-01T02:50:42;93751.00;;;8.10
41593;BMP180;28026;48.562;14.440;2023-02-01T02:56:58;93758.00;;;8.10
41593;BMP180;28026;48.562;14.440;2023-02-01T02:59:52;93742.00;;;8.10
41593;BMP180;28026;48.562;14.440;2023-02-01T03:02:46;93749.00;;;8.20
41593;BMP180;28026;48.562;14.440;2023-02-01T03:05:44;93750.00;;;8.10
41593;BMP180;28026;48.562;14.440;2023-02-01T03:08:19;93747.00;;;8.10
41593;BMP180;28026;48.562;14.440;2023-02-01T03:11:06;93730.00;;;8.20
41593;BMP180;28026;48.562;14.440;2023-02-01T03:13:49;93743.00;;;8.20
41593;BMP180;28026;48.562;14.440;2023-02-01T03:19:25;93746.00;;;8.10
41593;BMP180;28026;48.562;14.440;2023-02-01T03:22:11;93755.00;;;8.20
41593;BMP180;28026;48.562;14.440;2023-02-01T03:24:56;93734.00;;;8.20
41593;BMP180;28026;48.562;14.440;2023-02-01T03:30:26;93740.00;;;8.10
41593;BMP180;28026;48.562;14.440;2023-02-01T03:33:05;93740.00;;;8.20
41593;BMP180;28026;48.562;14.440;2023-02-01T03:39:34;93743.00;;;8.20
41593;BMP180;28026;48.562;14.440;2023-02-01T03:42:21;93734.00;;;8.20
41593;BMP180;28026;48.562;14.440;2023-02-01T03:45:13;93737.00;;;8.20
41593;BMP180;28026;48.562;14.440;2023-02-01T03:47:53;93736.00;;;8.20
41593;BMP180;28026;48.562;14.440;2023-02-01T03:50:33;93730.00;;;8.20
41593;BMP180;28026;48.562;14.440;2023-02-01T03:53:18;93718.00;;;8.20
41593;BMP180;28026;48.562;14.440;2023-02-01T03:55:53;93728.00;;;8.20
41593;BMP180;28026;48.562;14.440;2023-02-01T03:58:24;93717.00;;;8.20
41593;BMP180;28026;48.562;14.440;2023-02-01T04:01:00;93723.00;;;8.20
41593;BMP180;28026;48.562;14.440;2023-02-01T04:03:31;93710.00;;;8.20
41593;BMP180;28026;48.562;14.440;2023-02-01T04:06:02;93721.00;;;8.20
41593;BMP180;28026;48.562;14.440;2023-02-01T04:08:33;93720.00;;;8.20
41593;BMP180;28026;48.562;14.440;2023-02-01T04:11:04;93709.00;;;8.20
41593;BMP180;28026;48.562;14.440;2023-02-01T04:13:35;93716.00;;;8.20
41593;BMP180;28026;48.562;14.440;2023-02-01T04:16:06;93713.00;;;8.20
41593;BMP180;28026;48.562;14.440;2023-02-01T04:18:37;93708.00;;;8.20
41593;BMP180;28026;48.562;14.440;2023-02-01T04:21:08;93706.00;;;8.20
41593;BMP180;28026;48.562;14.440;2023-02-01T04:23:39;93699.00;;;8.20
41593;BMP180;28026;48.562;14.440;2023-02-01T04:26:10;93697.00;;;8.20
41593;BMP180;28026;48.562;14.440;2023-02-01T04:28:40;93695.00;;;8.20
41593;BMP180;28026;48.562;14.440;2023-02-01T04:31:11;93690.00;;;8.20
41593;BMP180;28026;48.562;14.440;2023-02-01T04:33:43;93687.00;;;8.20
41593;BMP180;28026;48.562;14.440;2023-02-01T04:36:14;93677.00;;;8.30
41593;BMP180;28026;48.562;14.440;2023-02-01T04:38:45;93658.00;;;8.30
41593;BMP180;28026;48.562;14.440;2023-02-01T04:41:16;93660.00;;;8.20
41593;BMP180;28026;48.562;14.440;2023-02-01T04:43:51;93654.00;;;8.30
41593;BMP180;28026;48.562;14.440;2023-02-01T04:46:23;93667.00;;;8.20
41593;BMP180;28026;48.562;14.440;2023-02-01T04:48:54;93665.00;;;8.30
41593;BMP180;28026;48.562;14.440;2023-02-01T04:51:24;93684.00;;;8.20
41593;BMP180;28026;48.562;14.440;2023-02-01T04:53:55;93677.00;;;8.20
41593;BMP180;28026;48.562;14.440;2023-02-01T04:56:26;93679.00;;;8.20
41593;BMP180;28026;48.562;14.440;2023-02-01T04:58:58;93659.00;;;8.20
41593;BMP180;28026;48.562;14.440;2023-02-01T05:01:30;93676.00;;;8.20
41593;BMP180;28026;48.562;14.440;2023-02-01T05:04:01;93675.00;;;8.20
41593;BMP180;28026;48.562;14.440;2023-02-01T05:06:32;93667.00;;;8.20
41593;BMP180;28026;48.562;14.440;2023-02-01T05:09:03;93663.00;;;8.20
41593;BMP180;28026;48.562;14.440;2023-02-01T05:11:34;93669.00;;;8.20
41593;BMP180;28026;48.562;14.440;2023-02-01T05:14:23;93655.00;;;8.20
41593;BMP180;28026;48.562;14.440;2023-02-01T05:16:54;93665.00;;;8.30
41593;BMP180;28026;48.562;14.440;2023-02-01T05:19:25;93665.00;;;8.30
41593;BMP180;28026;48.562;14.440;2023-02-01T05:21:56;93666.00;;;8.30
41593;BMP180;28026;48.562;14.440;2023-02-01T05:24:27;93667.00;;;8.30
41593;BMP180;28026;48.562;14.440;2023-02-01T05:26:57;93667.00;;;8.30
41593;BMP180;28026;48.562;14.440;2023-02-01T05:29:28;93674.00;;;8.30
41593;BMP180;28026;48.562;14.440;2023-02-01T05:31:59;93680.00;;;8.40
41593;BMP180;28026;48.562;14.440;2023-02-01T05:34:30;93681.00;;;8.40
41593;BMP180;28026;48.562;14.440;2023-02-01T05:37:01;93690.00;;;8.40
41593;BMP180;28026;48.562;14.440;2023-02-01T05:39:32;93686.00;;;8.40
41593;BMP180;28026;48.562;14.440;2023-02-01T05:42:03;93683.00;;;8.40
41593;BMP180;28026;48.562;14.440;2023-02-01T05:44:34;93667.00;;;8.30
41593;BMP180;28026;48.562;14.440;2023-02-01T05:47:05;93664.00;;;8.30
41593;BMP180;28026;48.562;14.440;2023-02-01T05:49:36;93666.00;;;8.30
41593;BMP180;28026;48.562;14.440;2023-02-01T05:52:07;93671.00;;;8.30
41593;BMP180;28026;48.562;14.440;2023-02-01T05:54:38;93663.00;;;8.30
41593;BMP180;28026;48.562;14.440;2023-02-01T05:57:09;93670.00;;;8.40
41593;BMP180;28026;48.562;14.440;2023-02-01T05:59:40;93672.00;;;8.40
41593;BMP180;28026;48.562;14.440;2023-02-01T06:02:17;93691.00;;;8.40
41593;BMP180;28026;48.562;14.440;2023-02-01T06:04:48;93687.00;;;8.40
41593;BMP180;28026;48.562;14.440;2023-02-01T06:07:19;93683.00;;;8.40
41593;BMP180;28026;48.562;14.440;2023-02-01T06:09:50;93691.00;;;8.40
41593;BMP180;28026;48.562;14.440;2023-02-01T06:12:21;93688.00;;;8.40
41593;BMP180;28026;48.562;14.440;2023-02-01T06:14:52;93679.00;;;8.40
41593;BMP180;28026;48.562;14.440;2023-02-01T06:17:23;93676.00;;;8.40
41593;BMP180;28026;48.562;14.440;2023-02-01T06:19:54;93681.00;;;8.40
41593;BMP180;28026;48.562;14.440;2023-02-01T06:22:24;93666.00;;;8.40
41593;BMP180;28026;48.562;14.440;2023-02-01T06:24:55;93673.00;;;8.40
41593;BMP180;28026;48.562;14.440;2023-02-01T06:27:26;93673.00;;;8.40
41593;BMP180;28026;48.562;14.440;2023-02-01T06:29:57;93669.00;;;8.40
41593;BMP180;28026;48.562;14.440;2023-02-01T06:32:28;93670.00;;;8.40
41593;BMP180;28026;48.562;14.440;2023-02-01T06:34:59;93663.00;;;8.40
41593;BMP180;28026;48.562;14.440;2023-02-01T06:37:30;93671.00;;;8.40
41593;BMP180;28026;48.562;14.440;2023-02-01T06:40:01;93663.00;;;8.40
41593;BMP180;28026;48.562;14.440;2023-02-01T06:42:32;93674.00;;;8.40
41593;BMP180;28026;48.562;14.440;2023-02-01T06:45:04;93677.00;;;8.30
41593;BMP180;28026;48.562;14.440;2023-02-01T06:47:37;93673.00;;;8.30
41593;BMP180;28026;48.562;14.440;2023-02-01T06:50:08;93682.00;;;8.30
41593;BMP180;28026;48.562;14.440;2023-02-01T06:52:39;93677.00;;;8.30
41593;BMP180;28026;48.562;14.440;2023-02-01T06:55:10;93688.00;;;8.30
41593;BMP180;28026;48.562;14.440;2023-02-01T06:57:41;93687.00;;;8.30
41593;BMP180;28026;48.562;14.440;2023-02-01T07:00:13;93690.00;;;8.30
41593;BMP180;28026;48.562;14.440;2023-02-01T07:02:44;93703.00;;;8.30
41593;BMP180;28026;48.562;14.440;2023-02-01T07:05:15;93697.00;;;8.30
41593;BMP180;28026;48.562;14.440;2023-02-01T07:07:46;93684.00;;;8.30
41593;BMP180;28026;48.562;14.440;2023-02-01T07:10:17;93694.00;;;8.30
41593;BMP180;28026;48.562;14.440;2023-02-01T07:12:48;93673.00;;;8.40
41593;BMP180;28026;48.562;14.440;2023-02-01T07:15:19;93672.00;;;8.40
41593;BMP180;28026;48.562;14.440;2023-02-01T07:17:50;93664.00;;;8.40
41593;BMP180;28026;48.562;14.440;2023-02-01T07:20:21;93650.00;;;8.40
41593;BMP180;28026;48.562;14.440;2023-02-01T07:22:57;93660.00;;;8.40
41593;BMP180;28026;48.562;14.440;2023-02-01T07:25:28;93653.00;;;8.40
41593;BMP180;28026;48.562;14.440;2023-02-01T07:27:58;93655.00;;;8.40
41593;BMP180;28026;48.562;14.440;2023-02-01T07:30:29;93649.00;;;8.50
41593;BMP180;28026;48.562;14.440;2023-02-01T07:33:00;93650.00;;;8.50
41593;BMP180;28026;48.562;14.440;2023-02-01T07:35:31;93642.00;;;8.60
41593;BMP180;28026;48.562;14.440;2023-02-01T07:38:02;93642.00;;;8.60
41593;BMP180;28026;48.562;14.440;2023-02-01T07:40:33;93654.00;;;8.60
41593;BMP180;28026;48.562;14.440;2023-02-01T07:43:04;93650.00;;;8.50
41593;BMP180;28026;48.562;14.440;2023-02-01T07:45:36;93650.00;;;8.50
41593;BMP180;28026;48.562;14.440;2023-02-01T07:48:07;93625.00;;;8.50
41593;BMP180;28026;48.562;14.440;2023-02-01T07:50:38;93634.00;;;8.50
41593;BMP180;28026;48.562;14.440;2023-02-01T07:53:09;93638.00;;;8.40
41593;BMP180;28026;48.562;14.440;2023-02-01T07:55:41;93639.00;;;8.40
41593;BMP180;28026;48.562;14.440;2023-02-01T07:58:14;93633.00;;;8.40
41593;BMP180;28026;48.562;14.440;2023-02-01T08:00:45;93624.00;;;8.40
41593;BMP180;28026;48.562;14.440;2023-02-01T08:03:35;93611.00;;;8.40
41593;BMP180;28026;48.562;14.440;2023-02-01T08:06:06;93609.00;;;8.40
41593;BMP180;28026;48.562;14.440;2023-02-01T08:08:37;93615.00;;;8.40
41593;BMP180;28026;48.562;14.440;2023-02-01T08:11:08;93600.00;;;8.40
41593;BMP180;28026;48.562;14.440;2023-02-01T08:13:39;93608.00;;;8.40
41593;BMP180;28026;48.562;14.440;2023-02-01T08:16:17;93613.00;;;8.40
41593;BMP180;28026;48.562;14.440;2023-02-01T08:18:50;93616.00;;;8.30
41593;BMP180;28026;48.562;14.440;2023-02-01T08:21:27;93604.00;;;8.40
41593;BMP180;28026;48.562;14.440;2023-02-01T08:24:08;93617.00;;;8.40
41593;BMP180;28026;48.562;14.440;2023-02-01T08:26:40;93621.00;;;8.50
41593;BMP180;28026;48.562;14.440;2023-02-01T08:29:11;93614.00;;;8.50
41593;BMP180;28026;48.562;14.440;2023-02-01T08:31:47;93605.00;;;8.50
41593;BMP180;28026;48.562;14.440;2023-02-01T08:34:17;93605.00;;;8.50
41593;BMP180;28026;48.562;14.440;2023-02-01T08:36:48;93612.00;;;8.60
41593;BMP180;28026;48.562;14.440;2023-02-01T08:39:19;93611.00;;;8.60
41593;BMP180;28026;48.562;14.440;2023-02-01T08:41:50;93606.00;;;8.60
41593;BMP180;28026;48.562;14.440;2023-02-01T08:44:40;93596.00;;;8.50
41593;BMP180;28026;48.562;14.440;2023-02-01T08:47:10;93604.00;;;8.50
41593;BMP180;28026;48.562;14.440;2023-02-01T08:49:41;93618.00;;;8.50
41593;BMP180;28026;48.562;14.440;2023-02-01T08:52:12;93612.00;;;8.40
41593;BMP180;28026;48.562;14.440;2023-02-01T08:54:43;93612.00;;;8.40
41593;BMP180;28026;48.562;14.440;2023-02-01T08:57:14;93612.00;;;8.40
41593;BMP180;28026;48.562;14.440;2023-02-01T08:59:45;93611.00;;;8.40
41593;BMP180;28026;48.562;14.440;2023-02-01T09:02:17;93608.00;;;8.40
41593;BMP180;28026;48.562;14.440;2023-02-01T09:04:49;93617.00;;;8.50
41593;BMP180;28026;48.562;14.440;2023-02-01T09:07:20;93604.00;;;8.50
41593;BMP180;28026;48.562;14.440;2023-02-01T09:09:51;93606.00;;;8.50
41593;BMP180;28026;48.562;14.440;2023-02-01T09:12:22;93605.00;;;8.60
41593;BMP180;28026;48.562;14.440;2023-02-01T09:14:55;93624.00;;;8.60
41593;BMP180;28026;48.562;14.440;2023-02-01T09:17:27;93622.00;;;8.70
41593;BMP180;28026;48.562;14.440;2023-02-01T09:19:59;93629.00;;;8.70
41593;BMP180;28026;48.562;14.440;2023-02-01T09:22:30;93622.00;;;8.80
41593;BMP180;28026;48.562;14.440;2023-02-01T09:25:01;93637.00;;;8.90
41593;BMP180;28026;48.562;14.440;2023-02-01T09:27:32;93605.00;;;9.00
41593;BMP180;28026;48.562;14.440;2023-02-01T09:30:04;93610.00;;;9.20
41593;BMP180;28026;48.562;14.440;2023-02-01T09:32:36;93626.00;;;9.20
41593;BMP180;28026;48.562;14.440;2023-02-01T09:35:07;93631.00;;;9.20
41593;BMP180;28026;48.562;14.440;2023-02-01T09:37:38;93624.00;;;9.20
41593;BMP180;28026;48.562;14.440;2023-02-01T09:40:15;93632.00;;;9.30
41593;BMP180;28026;48.562;14.440;2023-02-01T09:46:31;93629.00;;;9.50
41593;BMP180;28026;48.562;14.440;2023-02-01T09:49:12;93632.00;;;9.50
41593;BMP180;28026;48.562;14.440;2023-02-01T09:51:59;93617.00;;;9.60
41593;BMP180;28026;48.562;14.440;2023-02-01T09:54:52;93618.00;;;9.80
41593;BMP180;28026;48.562;14.440;2023-02-01T09:58:31;93611.00;;;9.80
41593;BMP180;28026;48.562;14.440;2023-02-01T10:01:19;93607.00;;;9.80
41593;BMP180;28026;48.562;14.440;2023-02-01T10:04:05;93607.00;;;9.90
41593;BMP180;28026;48.562;14.440;2023-02-01T10:10:14;93614.00;;;9.60
41593;BMP180;28026;48.562;14.440;2023-02-01T10:13:10;93619.00;;;9.50
41593;BMP180;28026;48.562;14.440;2023-02-01T10:16:26;93614.00;;;9.50
41593;BMP180;28026;48.562;14.440;2023-02-01T10:19:33;93609.00;;;9.50
41593;BMP180;28026;48.562;14.440;2023-02-01T10:22:39;93612.00;;;9.50
41593;BMP180;28026;48.562;14.440;2023-02-01T10:28:01;93636.00;;;9.60
41593;BMP180;28026;48.562;14.440;2023-02-01T10:30:44;93643.00;;;9.60
41593;BMP180;28026;48.562;14.440;2023-02-01T10:33:20;93637.00;;;9.60
41593;BMP180;28026;48.562;14.440;2023-02-01T10:36:35;93645.00;;;9.50
41593;BMP180;28026;48.562;14.440;2023-02-01T10:39:12;93639.00;;;9.40
41593;BMP180;28026;48.562;14.440;2023-02-01T10:41:47;93633.00;;;9.30
41593;BMP180;28026;48.562;14.440;2023-02-01T10:44:26;93641.00;;;9.20
41593;BMP180;28026;48.562;14.440;2023-02-01T10:47:00;93632.00;;;9.20
41593;BMP180;28026;48.562;14.440;2023-02-01T10:50:02;93622.00;;;9.20
41593;BMP180;28026;48.562;14.440;2023-02-01T10:53:12;93624.00;;;9.20
41593;BMP180;28026;48.562;14.440;2023-02-01T10:56:07;93618.00;;;9.30
41593;BMP180;28026;48.562;14.440;2023-02-01T10:58:47;93633.00;;;9.40
41593;BMP180;28026;48.562;14.440;2023-02-01T11:01:28;93622.00;;;9.40
41593;BMP180;28026;48.562;14.440;2023-02-01T11:04:09;93620.00;;;9.40
41593;BMP180;28026;48.562;14.440;2023-02-01T11:06:47;93635.00;;;9.40
41593;BMP180;28026;48.562;14.440;2023-02-01T11:09:25;93626.00;;;9.40
41593;BMP180;28026;48.562;14.440;2023-02-01T11:12:00;93622.00;;;9.30
41593;BMP180;28026;48.562;14.440;2023-02-01T11:14:40;93626.00;;;9.10
41593;BMP180;28026;48.562;14.440;2023-02-01T11:17:24;93627.00;;;9.00
41593;BMP180;28026;48.562;14.440;2023-02-01T11:20:05;93620.00;;;9.20
41593;BMP180;28026;48.562;14.440;2023-02-01T11:23:02;93608.00;;;9.50
41593;BMP180;28026;48.562;14.440;2023-02-01T11:25:36;93614.00;;;9.80
41593;BMP180;28026;48.562;14.440;2023-02-01T11:28:08;93629.00;;;10.20
41593;BMP180;28026;48.562;14.440;2023-02-01T11:30:44;93638.00;;;10.30
41593;BMP180;28026;48.562;14.440;2023-02-01T11:33:25;93623.00;;;10.30
41593;BMP180;28026;48.562;14.440;2023-02-01T11:36:16;93625.00;;;10.30
41593;BMP180;28026;48.562;14.440;2023-02-01T11:42:14;93615.00;;;10.10
41593;BMP180;28026;48.562;14.440;2023-02-01T11:44:47;93615.00;;;10.20
41593;BMP180;28026;48.562;14.440;2023-02-01T11:47:31;93611.00;;;10.30
41593;BMP180;28026;48.562;14.440;2023-02-01T11:50:25;93605.00;;;10.30
41593;BMP180;28026;48.562;14.440;2023-02-01T11:59:59;93619.00;;;10.30
41593;BMP180;28026;48.562;14.440;2023-02-01T12:06:16;93616.00;;;10.10
41593;BMP180;28026;48.562;14.440;2023-02-01T12:15:28;93598.00;;;9.70
41593;BMP180;28026;48.562;14.440;2023-02-01T12:22:07;93589.00;;;9.30
41593;BMP180;28026;48.562;14.440;2023-02-01T12:25:33;93584.00;;;9.30
41593;BMP180;28026;48.562;14.440;2023-02-01T12:38:42;93582.00;;;9.20
41593;BMP180;28026;48.562;14.440;2023-02-01T12:47:39;93563.00;;;9.20
41593;BMP180;28026;48.562;14.440;2023-02-01T12:50:39;93570.00;;;9.20
41593;BMP180;28026;48.562;14.440;2023-02-01T12:53:52;93571.00;;;9.20
41593;BMP180;28026;48.562;14.440;2023-02-01T12:56:49;93565.00;;;9.20
41593;BMP180;28026;48.562;14.440;2023-02-01T13:06:39;93592.00;;;9.70
41593;BMP180;28026;48.562;14.440;2023-02-01T13:12:04;93590.00;;;9.90
41593;BMP180;28026;48.562;14.440;2023-02-01T13:14:56;93597.00;;;10.00
41593;BMP180;28026;48.562;14.440;2023-02-01T13:17:33;93606.00;;;10.10
41593;BMP180;28026;48.562;14.440;2023-02-01T13:23:26;93613.00;;;10.30
41593;BMP180;28026;48.562;14.440;2023-02-01T13:25:59;93608.00;;;10.30
41593;BMP180;28026;48.562;14.440;2023-02-01T13:28:49;93613.00;;;10.60
41593;BMP180;28026;48.562;14.440;2023-02-01T13:41:56;93626.00;;;10.40
41593;BMP180;28026;48.562;14.440;2023-02-01T13:44:57;93617.00;;;10.20
41593;BMP180;28026;48.562;14.440;2023-02-01T13:47:42;93629.00;;;10.10
41593;BMP180;28026;48.562;14.440;2023-02-01T13:50:38;93626.00;;;9.90
41593;BMP180;28026;48.562;14.440;2023-02-01T13:53:26;93634.00;;;9.70
41593;BMP180;28026;48.562;14.440;2023-02-01T13:56:16;93630.00;;;9.50
41593;BMP180;28026;48.562;14.440;2023-02-01T13:58:50;93631.00;;;9.40
41593;BMP180;28026;48.562;14.440;2023-02-01T14:03:58;93617.00;;;9.30
41593;BMP180;28026;48.562;14.440;2023-02-01T14:11:54;93621.00;;;9.10
41593;BMP180;28026;48.562;14.440;2023-02-01T14:19:32;93603.00;;;9.20
41593;BMP180;28026;48.562;14.440;2023-02-01T14:22:33;93599.00;;;9.20
41593;BMP180;28026;48.562;14.440;2023-02-01T14:25:17;93598.00;;;9.20
41593;BMP180;28026;48.562;14.440;2023-02-01T14:27:48;93582.00;;;9.10
41593;BMP180;28026;48.562;14.440;2023-02-01T14:30:19;93590.00;;;9.10
41593;BMP180;28026;48.562;14.440;2023-02-01T14:32:50;93606.00;;;9.10
41593;BMP180;28026;48.562;14.440;2023-02-01T14:35:26;93598.00;;;9.10
41593;BMP180;28026;48.562;14.440;2023-02-01T14:38:02;93603.00;;;9.10
41593;BMP180;28026;48.562;14.440;2023-02-01T14:40:34;93594.00;;;9.10
41593;BMP180;28026;48.562;14.440;2023-02-01T14:43:08;93609.00;;;9.00
41593;BMP180;28026;48.562;14.440;2023-02-01T14:50:47;93600.00;;;9.00
41593;BMP180;28026;48.562;14.440;2023-02-01T14:53:33;93604.00;;;9.00
41593;BMP180;28026;48.562;14.440;2023-02-01T14:59:06;93599.00;;;8.90
41593;BMP180;28026;48.562;14.440;2023-02-01T15:01:50;93595.00;;;8.80
41593;BMP180;28026;48.562;14.440;2023-02-01T15:04:27;93591.00;;;8.80
41593;BMP180;28026;48.562;14.440;2023-02-01T15:07:13;93577.00;;;8.80
41593;BMP180;28026;48.562;14.440;2023-02-01T15:09:47;93579.00;;;8.90
41593;BMP180;28026;48.562;14.440;2023-02-01T15:12:26;93574.00;;;8.90
41593;BMP180;28026;48.562;14.440;2023-02-01T15:15:18;93560.00;;;8.90
41593;BMP180;28026;48.562;14.440;2023-02-01T15:17:59;93560.00;;;8.90
41593;BMP180;28026;48.562;14.440;2023-02-01T15:20:33;93549.00;;;8.90
41593;BMP180;28026;48.562;14.440;2023-02-01T15:23:16;93574.00;;;8.90
41593;BMP180;28026;48.562;14.440;2023-02-01T15:25:48;93580.00;;;8.90
41593;BMP180;28026;48.562;14.440;2023-02-01T15:28:19;93575.00;;;8.90
41593;BMP180;28026;48.562;14.440;2023-02-01T15:33:30;93587.00;;;8.80
41593;BMP180;28026;48.562;14.440;2023-02-01T15:36:17;93574.00;;;8.80
41593;BMP180;28026;48.562;14.440;2023-02-01T15:42:00;93580.00;;;8.70
41593;BMP180;28026;48.562;14.440;2023-02-01T15:44:44;93580.00;;;8.80
41593;BMP180;28026;48.562;14.440;2023-02-01T15:47:20;93570.00;;;8.70
41593;BMP180;28026;48.562;14.440;2023-02-01T15:49:59;93576.00;;;8.70
41593;BMP180;28026;48.562;14.440;2023-02-01T15:52:40;93580.00;;;8.70
41593;BMP180;28026;48.562;14.440;2023-02-01T15:55:36;93599.00;;;8.70
41593;BMP180;28026;48.562;14.440;2023-02-01T15:58:21;93582.00;;;8.70
41593;BMP180;28026;48.562;14.440;2023-02-01T16:01:04;93595.00;;;8.60
41593;BMP180;28026;48.562;14.440;2023-02-01T16:03:45;93598.00;;;8.50
41593;BMP180;28026;48.562;14.440;2023-02-01T16:09:16;93593.00;;;8.50
41593;BMP180;28026;48.562;14.440;2023-02-01T16:11:56;93586.00;;;8.50
41593;BMP180;28026;48.562;14.440;2023-02-01T16:14:27;93574.00;;;8.50
41593;BMP180;28026;48.562;14.440;2023-02-01T16:16:59;93579.00;;;8.50
41593;BMP180;28026;48.562;14.440;2023-02-01T16:19:29;93575.00;;;8.60
41593;BMP180;28026;48.562;14.440;2023-02-01T16:22:00;93568.00;;;8.50
41593;BMP180;28026;48.562;14.440;2023-02-01T16:24:31;93573.00;;;8.50
41593;BMP180;28026;48.562;14.440;2023-02-01T16:27:03;93573.00;;;8.50
41593;BMP180;28026;48.562;14.440;2023-02-01T16:29:37;93564.00;;;8.50
41593;BMP180;28026;48.562;14.440;2023-02-01T16:32:18;93568.00;;;8.50
41593;BMP180;28026;48.562;14.440;2023-02-01T16:34:51;93584.00;;;8.50
41593;BMP180;28026;48.562;14.440;2023-02-01T16:37:24;93578.00;;;8.40
41593;BMP180;28026;48.562;14.440;2023-02-01T16:39:58;93575.00;;;8.40
41593;BMP180;28026;48.562;14.440;2023-02-01T16:42:29;93576.00;;;8.40
41593;BMP180;28026;48.562;14.440;2023-02-01T16:45:01;93567.00;;;8.40
41593;BMP180;28026;48.562;14.440;2023-02-01T16:47:32;93566.00;;;8.40
41593;BMP180;28026;48.562;14.440;2023-02-01T16:50:15;93564.00;;;8.40
41593;BMP180;28026;48.562;14.440;2023-02-01T16:52:48;93568.00;;;8.40
41593;BMP180;28026;48.562;14.440;2023-02-01T16:55:21;93575.00;;;8.40
41593;BMP180;28026;48.562;14.440;2023-02-01T16:57:52;93576.00;;;8.40
41593;BMP180;28026;48.562;14.440;2023-02-01T17:00:23;93562.00;;;8.50
41593;BMP180;28026;48.562;14.440;2023-02-01T17:02:55;93570.00;;;8.40
41593;BMP180;28026;48.562;14.440;2023-02-01T17:05:26;93562.00;;;8.40
41593;BMP180;28026;48.562;14.440;2023-02-01T17:08:04;93564.00;;;8.40
41593;BMP180;28026;48.562;14.440;2023-02-01T17:10:37;93545.00;;;8.40
41593;BMP180;28026;48.562;14.440;2023-02-01T17:13:14;93573.00;;;8.40
41593;BMP180;28026;48.562;14.440;2023-02-01T17:15:58;93563.00;;;8.40
41593;BMP180;28026;48.562;14.440;2023-02-01T17:18:33;93573.00;;;8.40
41593;BMP180;28026;48.562;14.440;2023-02-01T17:21:06;93582.00;;;8.50
41593;BMP180;28026;48.562;14.440;2023-02-01T17:23:39;93562.00;;;8.50